Main page
METAR-TAF:

METAR-TAF

Airports :

Ålesund Airport. Vigra

Ålesund, Norway

latitude: 62-34N, longitude: 006-07E, elevation: 2 m

Current weather observation

The report was made 24 minutes ago, at 22:50 UTC
Wind 2 kt from the North
Temperature 9°C
Humidity 93%
Pressure 1010 hPa
Visibility 10 km or more

METAR: ENAL 132250Z AUTO 01002KT 9999 OVC030/// 09/08 Q1010

Time: 01:14 (23:14 UTC)

Forecast

The report was made 9 hours and 14 minutes ago, at 14:00 UTC
Forecast valid from 13 at 15 UTC to 13 at 22 UTC
Wind 8 kt from the Northeast
Visibility 10 km or more
Few clouds at a height of 2000 ft, Towering cumulus.
Scattered clouds at a height of 3500 ft
Probability 40% :
Temporary
from 13 at 15 UTC to 13 at 21 UTC
Broken clouds at a height of 2000 ft, Cumulonimbus.
rain showers,

TAF: ENAL 131400Z 1315/1322 05008KT 9999 FEW020TCU SCT035 PROB40 TEMPO 1315/1321 SHRA BKN020CB

Weather observations and forecasts of more than 4000 airports (METAR and TAF reports).

The available stations are represented by yellow and red dots on the map.

Hover mouse over dot to see the name of the station.

Then click to see weather observations and forecasts.

To change the map : click on the green buttons with a black cross to zoom in, on the green button with a dash to zoom out, or on the green arrows for adjacent maps.


METAR-TAF: